sensor_id;sensor_type;location;lat;lon;timestamp;temperature;humidity
20380;DHT22;10349;48.666;8.948;2022-12-07T00:01:04;2.70;99.90
20380;DHT22;10349;48.666;8.948;2022-12-07T00:03:30;2.70;99.90
20380;DHT22;10349;48.666;8.948;2022-12-07T00:06:00;2.70;99.90
20380;DHT22;10349;48.666;8.948;2022-12-07T00:08:26;2.80;99.90
20380;DHT22;10349;48.666;8.948;2022-12-07T00:10:53;2.80;99.90
20380;DHT22;10349;48.666;8.948;2022-12-07T00:13:18;2.70;99.90
20380;DHT22;10349;48.666;8.948;2022-12-07T00:15:44;2.80;99.90
20380;DHT22;10349;48.666;8.948;2022-12-07T00:18:10;2.70;99.90
20380;DHT22;10349;48.666;8.948;2022-12-07T00:20:36;2.70;99.90
20380;DHT22;10349;48.666;8.948;2022-12-07T00:23:07;2.80;99.90
20380;DHT22;10349;48.666;8.948;2022-12-07T00:25:33;2.70;99.90
20380;DHT22;10349;48.666;8.948;2022-12-07T00:27:58;2.70;99.90
20380;DHT22;10349;48.666;8.948;2022-12-07T00:30:24;2.70;99.90
20380;DHT22;10349;48.666;8.948;2022-12-07T00:32:50;2.70;99.90
20380;DHT22;10349;48.666;8.948;2022-12-07T00:35:15;2.70;99.90
20380;DHT22;10349;48.666;8.948;2022-12-07T00:37:41;2.70;99.90
20380;DHT22;10349;48.666;8.948;2022-12-07T00:40:07;2.60;99.90
20380;DHT22;10349;48.666;8.948;2022-12-07T00:42:33;2.60;99.90
20380;DHT22;10349;48.666;8.948;2022-12-07T00:44:58;2.70;99.90
20380;DHT22;10349;48.666;8.948;2022-12-07T00:47:24;2.70;99.90
20380;DHT22;10349;48.666;8.948;2022-12-07T00:49:50;2.70;99.90
20380;DHT22;10349;48.666;8.948;2022-12-07T00:52:15;2.70;99.90
20380;DHT22;10349;48.666;8.948;2022-12-07T00:54:41;2.70;99.90
20380;DHT22;10349;48.666;8.948;2022-12-07T00:57:06;2.70;99.90
20380;DHT22;10349;48.666;8.948;2022-12-07T00:59:32;2.60;99.90
20380;DHT22;10349;48.666;8.948;2022-12-07T01:01:58;2.60;99.90
20380;DHT22;10349;48.666;8.948;2022-12-07T01:04:23;2.60;99.90
20380;DHT22;10349;48.666;8.948;2022-12-07T01:06:49;2.50;99.90
20380;DHT22;10349;48.666;8.948;2022-12-07T01:09:15;2.50;99.90
20380;DHT22;10349;48.666;8.948;2022-12-07T01:11:41;2.50;99.90
20380;DHT22;10349;48.666;8.948;2022-12-07T01:14:08;2.50;99.90
20380;DHT22;10349;48.666;8.948;2022-12-07T01:16:33;2.50;99.90
20380;DHT22;10349;48.666;8.948;2022-12-07T01:19:00;2.50;99.90
20380;DHT22;10349;48.666;8.948;2022-12-07T01:21:28;2.50;99.90
20380;DHT22;10349;48.666;8.948;2022-12-07T01:23:56;2.50;99.90
20380;DHT22;10349;48.666;8.948;2022-12-07T01:26:23;2.50;99.90
20380;DHT22;10349;48.666;8.948;2022-12-07T01:28:49;2.50;99.90
20380;DHT22;10349;48.666;8.948;2022-12-07T01:31:18;2.50;99.90
20380;DHT22;10349;48.666;8.948;2022-12-07T01:33:50;2.50;99.90
20380;DHT22;10349;48.666;8.948;2022-12-07T01:36:21;2.50;99.90
20380;DHT22;10349;48.666;8.948;2022-12-07T01:38:49;2.50;99.90
20380;DHT22;10349;48.666;8.948;2022-12-07T01:41:17;2.50;99.90
20380;DHT22;10349;48.666;8.948;2022-12-07T01:44:09;2.50;99.90
20380;DHT22;10349;48.666;8.948;2022-12-07T01:46:35;2.50;99.90
20380;DHT22;10349;48.666;8.948;2022-12-07T01:49:02;2.40;99.90
20380;DHT22;10349;48.666;8.948;2022-12-07T01:51:29;2.40;99.90
20380;DHT22;10349;48.666;8.948;2022-12-07T01:53:55;2.40;99.90
20380;DHT22;10349;48.666;8.948;2022-12-07T01:56:25;2.40;99.90
20380;DHT22;10349;48.666;8.948;2022-12-07T01:58:52;2.40;99.90
20380;DHT22;10349;48.666;8.948;2022-12-07T02:01:19;2.40;99.90
20380;DHT22;10349;48.666;8.948;2022-12-07T02:03:45;2.40;99.90
20380;DHT22;10349;48.666;8.948;2022-12-07T02:06:13;2.40;99.90
20380;DHT22;10349;48.666;8.948;2022-12-07T02:08:42;2.40;99.90
20380;DHT22;10349;48.666;8.948;2022-12-07T02:11:08;2.40;99.90
20380;DHT22;10349;48.666;8.948;2022-12-07T02:13:36;2.40;99.90
20380;DHT22;10349;48.666;8.948;2022-12-07T02:16:24;2.40;99.90
20380;DHT22;10349;48.666;8.948;2022-12-07T02:30:02;2.40;99.90
20380;DHT22;10349;48.666;8.948;2022-12-07T02:32:48;2.30;99.90
20380;DHT22;10349;48.666;8.948;2022-12-07T02:35:26;2.30;99.90
20380;DHT22;10349;48.666;8.948;2022-12-07T02:38:36;2.20;99.90
20380;DHT22;10349;48.666;8.948;2022-12-07T02:40:53;2.20;99.90
20380;DHT22;10349;48.666;8.948;2022-12-07T02:46:03;2.20;99.90
20380;DHT22;10349;48.666;8.948;2022-12-07T02:48:31;2.20;99.90
20380;DHT22;10349;48.666;8.948;2022-12-07T02:50:58;2.20;99.90
20380;DHT22;10349;48.666;8.948;2022-12-07T02:53:40;2.20;99.90
20380;DHT22;10349;48.666;8.948;2022-12-07T02:56:26;2.20;99.90
20380;DHT22;10349;48.666;8.948;2022-12-07T02:59:13;2.20;99.90
20380;DHT22;10349;48.666;8.948;2022-12-07T03:07:34;2.20;99.90
20380;DHT22;10349;48.666;8.948;2022-12-07T03:10:27;2.20;99.90
20380;DHT22;10349;48.666;8.948;2022-12-07T03:13:29;2.20;99.90
20380;DHT22;10349;48.666;8.948;2022-12-07T03:18:36;2.20;99.90
20380;DHT22;10349;48.666;8.948;2022-12-07T03:21:07;2.20;99.90
20380;DHT22;10349;48.666;8.948;2022-12-07T03:23:37;2.30;99.90
20380;DHT22;10349;48.666;8.948;2022-12-07T03:26:05;2.20;99.90
20380;DHT22;10349;48.666;8.948;2022-12-07T03:28:35;2.30;99.90
20380;DHT22;10349;48.666;8.948;2022-12-07T03:31:11;2.30;99.90
20380;DHT22;10349;48.666;8.948;2022-12-07T03:34:14;2.30;99.90
20380;DHT22;10349;48.666;8.948;2022-12-07T03:36:52;2.30;99.90
20380;DHT22;10349;48.666;8.948;2022-12-07T03:39:27;2.30;99.90
20380;DHT22;10349;48.666;8.948;2022-12-07T03:41:54;2.20;99.90
20380;DHT22;10349;48.666;8.948;2022-12-07T03:44:22;2.20;99.90
20380;DHT22;10349;48.666;8.948;2022-12-07T03:47:02;2.20;99.90
20380;DHT22;10349;48.666;8.948;2022-12-07T03:49:44;2.10;99.90
20380;DHT22;10349;48.666;8.948;2022-12-07T03:55:02;2.10;99.90
20380;DHT22;10349;48.666;8.948;2022-12-07T03:57:33;2.10;99.90
20380;DHT22;10349;48.666;8.948;2022-12-07T03:59:59;2.10;99.90
20380;DHT22;10349;48.666;8.948;2022-12-07T04:02:27;2.10;99.90
20380;DHT22;10349;48.666;8.948;2022-12-07T04:04:54;2.10;99.90
20380;DHT22;10349;48.666;8.948;2022-12-07T04:07:20;2.10;99.90
20380;DHT22;10349;48.666;8.948;2022-12-07T04:09:45;2.10;99.90
20380;DHT22;10349;48.666;8.948;2022-12-07T04:12:11;2.10;99.90
20380;DHT22;10349;48.666;8.948;2022-12-07T04:14:37;2.10;99.90
20380;DHT22;10349;48.666;8.948;2022-12-07T04:17:02;2.00;99.90
20380;DHT22;10349;48.666;8.948;2022-12-07T04:19:31;2.00;99.90
20380;DHT22;10349;48.666;8.948;2022-12-07T04:21:59;2.00;99.90
20380;DHT22;10349;48.666;8.948;2022-12-07T04:24:25;2.00;99.90
20380;DHT22;10349;48.666;8.948;2022-12-07T04:26:51;1.90;99.90
20380;DHT22;10349;48.666;8.948;2022-12-07T04:29:18;1.90;99.90
20380;DHT22;10349;48.666;8.948;2022-12-07T04:31:44;1.80;99.90
20380;DHT22;10349;48.666;8.948;2022-12-07T04:34:11;1.70;99.90
20380;DHT22;10349;48.666;8.948;2022-12-07T04:36:38;1.70;99.90
20380;DHT22;10349;48.666;8.948;2022-12-07T04:39:05;1.70;99.90
20380;DHT22;10349;48.666;8.948;2022-12-07T04:41:32;1.70;99.90
20380;DHT22;10349;48.666;8.948;2022-12-07T04:44:00;1.70;99.90
20380;DHT22;10349;48.666;8.948;2022-12-07T04:46:26;1.60;99.90
20380;DHT22;10349;48.666;8.948;2022-12-07T04:48:53;1.60;99.90
20380;DHT22;10349;48.666;8.948;2022-12-07T04:51:22;1.50;99.90
20380;DHT22;10349;48.666;8.948;2022-12-07T04:53:47;1.40;99.90
20380;DHT22;10349;48.666;8.948;2022-12-07T04:56:14;1.40;99.90
20380;DHT22;10349;48.666;8.948;2022-12-07T04:58:41;1.40;99.90
20380;DHT22;10349;48.666;8.948;2022-12-07T05:01:07;1.40;99.90
20380;DHT22;10349;48.666;8.948;2022-12-07T05:03:33;1.50;99.90
20380;DHT22;10349;48.666;8.948;2022-12-07T05:05:58;1.40;99.90
20380;DHT22;10349;48.666;8.948;2022-12-07T05:08:24;1.40;99.90
20380;DHT22;10349;48.666;8.948;2022-12-07T05:10:50;1.30;99.90
20380;DHT22;10349;48.666;8.948;2022-12-07T05:13:15;1.30;99.90
20380;DHT22;10349;48.666;8.948;2022-12-07T05:15:41;1.20;99.90
20380;DHT22;10349;48.666;8.948;2022-12-07T05:18:09;1.20;99.90
20380;DHT22;10349;48.666;8.948;2022-12-07T05:20:37;1.20;99.90
20380;DHT22;10349;48.666;8.948;2022-12-07T05:23:03;1.20;99.90
20380;DHT22;10349;48.666;8.948;2022-12-07T05:25:28;1.20;99.90
20380;DHT22;10349;48.666;8.948;2022-12-07T05:27:55;1.20;99.90
20380;DHT22;10349;48.666;8.948;2022-12-07T05:30:21;1.20;99.90
20380;DHT22;10349;48.666;8.948;2022-12-07T05:32:47;1.20;99.90
20380;DHT22;10349;48.666;8.948;2022-12-07T05:35:13;1.20;99.90
20380;DHT22;10349;48.666;8.948;2022-12-07T05:37:39;1.10;99.90
20380;DHT22;10349;48.666;8.948;2022-12-07T05:40:05;1.10;99.90
20380;DHT22;10349;48.666;8.948;2022-12-07T05:42:32;1.00;99.90
20380;DHT22;10349;48.666;8.948;2022-12-07T05:44:58;1.00;99.90
20380;DHT22;10349;48.666;8.948;2022-12-07T05:47:24;0.90;99.90
20380;DHT22;10349;48.666;8.948;2022-12-07T05:49:50;0.90;99.90
20380;DHT22;10349;48.666;8.948;2022-12-07T05:52:16;0.90;99.90
20380;DHT22;10349;48.666;8.948;2022-12-07T05:54:41;0.80;99.90
20380;DHT22;10349;48.666;8.948;2022-12-07T05:57:07;0.80;99.90
20380;DHT22;10349;48.666;8.948;2022-12-07T05:59:33;0.70;99.90
20380;DHT22;10349;48.666;8.948;2022-12-07T06:02:01;0.70;99.90
20380;DHT22;10349;48.666;8.948;2022-12-07T06:04:30;0.70;99.90
20380;DHT22;10349;48.666;8.948;2022-12-07T06:06:57;0.60;99.90
20380;DHT22;10349;48.666;8.948;2022-12-07T06:09:24;0.60;99.90
20380;DHT22;10349;48.666;8.948;2022-12-07T06:11:50;0.60;99.90
20380;DHT22;10349;48.666;8.948;2022-12-07T06:14:35;0.60;99.90
20380;DHT22;10349;48.666;8.948;2022-12-07T06:17:01;0.60;99.90
20380;DHT22;10349;48.666;8.948;2022-12-07T06:19:26;0.50;99.90
20380;DHT22;10349;48.666;8.948;2022-12-07T06:21:53;0.50;99.90
20380;DHT22;10349;48.666;8.948;2022-12-07T06:24:19;0.50;99.90
20380;DHT22;10349;48.666;8.948;2022-12-07T06:26:45;0.50;99.90
20380;DHT22;10349;48.666;8.948;2022-12-07T06:29:12;0.40;99.90
20380;DHT22;10349;48.666;8.948;2022-12-07T06:31:38;0.40;99.90
20380;DHT22;10349;48.666;8.948;2022-12-07T06:34:13;0.40;99.90
20380;DHT22;10349;48.666;8.948;2022-12-07T06:36:39;0.40;99.90
20380;DHT22;10349;48.666;8.948;2022-12-07T06:39:05;0.40;99.90
20380;DHT22;10349;48.666;8.948;2022-12-07T06:41:31;0.50;99.90
20380;DHT22;10349;48.666;8.948;2022-12-07T06:43:57;0.50;99.90
20380;DHT22;10349;48.666;8.948;2022-12-07T06:46:23;0.50;99.90
20380;DHT22;10349;48.666;8.948;2022-12-07T06:48:49;0.50;99.90
20380;DHT22;10349;48.666;8.948;2022-12-07T06:51:14;0.50;99.90
20380;DHT22;10349;48.666;8.948;2022-12-07T06:53:40;0.60;99.90
20380;DHT22;10349;48.666;8.948;2022-12-07T06:56:06;0.60;99.90
20380;DHT22;10349;48.666;8.948;2022-12-07T06:58:32;0.60;99.90
20380;DHT22;10349;48.666;8.948;2022-12-07T07:00:58;0.60;99.90
20380;DHT22;10349;48.666;8.948;2022-12-07T07:03:24;0.60;99.90
20380;DHT22;10349;48.666;8.948;2022-12-07T07:05:50;0.60;99.90
20380;DHT22;10349;48.666;8.948;2022-12-07T07:08:15;0.60;99.90
20380;DHT22;10349;48.666;8.948;2022-12-07T07:10:41;0.60;99.90
20380;DHT22;10349;48.666;8.948;2022-12-07T07:13:07;0.60;99.90
20380;DHT22;10349;48.666;8.948;2022-12-07T07:15:33;0.60;99.90
20380;DHT22;10349;48.666;8.948;2022-12-07T07:18:00;0.60;99.90
20380;DHT22;10349;48.666;8.948;2022-12-07T07:20:26;0.50;99.90
20380;DHT22;10349;48.666;8.948;2022-12-07T07:22:54;0.50;99.90
20380;DHT22;10349;48.666;8.948;2022-12-07T07:25:21;0.50;99.90
20380;DHT22;10349;48.666;8.948;2022-12-07T07:27:46;0.60;99.90
20380;DHT22;10349;48.666;8.948;2022-12-07T07:30:12;0.60;99.90
20380;DHT22;10349;48.666;8.948;2022-12-07T07:32:38;0.60;99.90
20380;DHT22;10349;48.666;8.948;2022-12-07T07:35:04;0.60;99.90
20380;DHT22;10349;48.666;8.948;2022-12-07T07:37:30;0.60;99.90
20380;DHT22;10349;48.666;8.948;2022-12-07T07:39:55;0.60;99.90
20380;DHT22;10349;48.666;8.948;2022-12-07T07:42:21;0.60;99.90
20380;DHT22;10349;48.666;8.948;2022-12-07T07:44:47;0.60;99.90
20380;DHT22;10349;48.666;8.948;2022-12-07T07:47:13;0.70;99.90
20380;DHT22;10349;48.666;8.948;2022-12-07T07:49:38;0.70;99.90
20380;DHT22;10349;48.666;8.948;2022-12-07T07:52:06;0.70;99.90
20380;DHT22;10349;48.666;8.948;2022-12-07T07:54:32;0.70;99.90
20380;DHT22;10349;48.666;8.948;2022-12-07T07:56:57;0.60;99.90
20380;DHT22;10349;48.666;8.948;2022-12-07T07:59:23;0.60;99.90
20380;DHT22;10349;48.666;8.948;2022-12-07T08:01:50;0.60;99.90
20380;DHT22;10349;48.666;8.948;2022-12-07T08:04:16;0.60;99.90
20380;DHT22;10349;48.666;8.948;2022-12-07T08:06:41;0.70;99.90
20380;DHT22;10349;48.666;8.948;2022-12-07T08:09:08;0.70;99.90
20380;DHT22;10349;48.666;8.948;2022-12-07T08:11:34;0.70;99.90
20380;DHT22;10349;48.666;8.948;2022-12-07T08:14:01;0.70;99.90
20380;DHT22;10349;48.666;8.948;2022-12-07T08:16:27;0.70;99.90
20380;DHT22;10349;48.666;8.948;2022-12-07T08:18:53;0.70;99.90
20380;DHT22;10349;48.666;8.948;2022-12-07T08:21:18;0.70;99.90
20380;DHT22;10349;48.666;8.948;2022-12-07T08:23:44;0.80;99.90
20380;DHT22;10349;48.666;8.948;2022-12-07T08:26:12;0.80;99.90
20380;DHT22;10349;48.666;8.948;2022-12-07T08:28:38;0.90;99.90
20380;DHT22;10349;48.666;8.948;2022-12-07T08:31:16;0.90;99.90
20380;DHT22;10349;48.666;8.948;2022-12-07T08:33:44;0.90;99.90
20380;DHT22;10349;48.666;8.948;2022-12-07T08:36:11;1.00;99.90
20380;DHT22;10349;48.666;8.948;2022-12-07T08:38:39;1.10;99.90
20380;DHT22;10349;48.666;8.948;2022-12-07T08:41:05;1.10;99.90
20380;DHT22;10349;48.666;8.948;2022-12-07T08:43:31;1.10;99.90
20380;DHT22;10349;48.666;8.948;2022-12-07T08:48:50;1.10;99.90
20380;DHT22;10349;48.666;8.948;2022-12-07T08:51:16;1.20;99.90
20380;DHT22;10349;48.666;8.948;2022-12-07T08:53:42;1.20;99.90
20380;DHT22;10349;48.666;8.948;2022-12-07T08:56:09;1.30;99.90
20380;DHT22;10349;48.666;8.948;2022-12-07T08:58:36;1.30;99.90
20380;DHT22;10349;48.666;8.948;2022-12-07T09:01:03;1.40;99.90
20380;DHT22;10349;48.666;8.948;2022-12-07T09:03:29;1.40;99.90
20380;DHT22;10349;48.666;8.948;2022-12-07T09:05:54;1.50;99.90
20380;DHT22;10349;48.666;8.948;2022-12-07T09:08:21;1.50;99.90
20380;DHT22;10349;48.666;8.948;2022-12-07T09:10:48;1.60;99.90
20380;DHT22;10349;48.666;8.948;2022-12-07T09:13:13;1.60;99.90
20380;DHT22;10349;48.666;8.948;2022-12-07T09:15:39;1.70;99.90
20380;DHT22;10349;48.666;8.948;2022-12-07T09:18:05;1.70;99.90
20380;DHT22;10349;48.666;8.948;2022-12-07T09:20:31;1.70;99.90
20380;DHT22;10349;48.666;8.948;2022-12-07T09:22:57;1.80;99.90
20380;DHT22;10349;48.666;8.948;2022-12-07T09:25:23;1.90;99.90
20380;DHT22;10349;48.666;8.948;2022-12-07T09:27:55;1.90;99.90
20380;DHT22;10349;48.666;8.948;2022-12-07T09:30:21;1.90;99.90
20380;DHT22;10349;48.666;8.948;2022-12-07T09:32:46;1.90;99.90
20380;DHT22;10349;48.666;8.948;2022-12-07T09:35:12;2.00;99.90
20380;DHT22;10349;48.666;8.948;2022-12-07T09:37:37;2.00;99.90
20380;DHT22;10349;48.666;8.948;2022-12-07T09:40:04;2.10;99.90
20380;DHT22;10349;48.666;8.948;2022-12-07T09:42:35;2.10;99.90
20380;DHT22;10349;48.666;8.948;2022-12-07T09:45:02;2.10;99.90
20380;DHT22;10349;48.666;8.948;2022-12-07T09:47:29;2.20;99.90
20380;DHT22;10349;48.666;8.948;2022-12-07T09:50:03;2.30;99.90
20380;DHT22;10349;48.666;8.948;2022-12-07T09:52:30;2.30;99.90
20380;DHT22;10349;48.666;8.948;2022-12-07T09:54:56;2.40;99.90
20380;DHT22;10349;48.666;8.948;2022-12-07T09:57:28;2.40;99.90
20380;DHT22;10349;48.666;8.948;2022-12-07T10:00:03;2.40;99.90
20380;DHT22;10349;48.666;8.948;2022-12-07T10:05:15;2.50;99.90
20380;DHT22;10349;48.666;8.948;2022-12-07T10:07:42;2.60;99.90
20380;DHT22;10349;48.666;8.948;2022-12-07T10:10:28;2.70;99.90
20380;DHT22;10349;48.666;8.948;2022-12-07T10:13:06;2.80;99.90
20380;DHT22;10349;48.666;8.948;2022-12-07T10:15:49;2.80;99.90
20380;DHT22;10349;48.666;8.948;2022-12-07T10:18:36;2.90;99.90
20380;DHT22;10349;48.666;8.948;2022-12-07T10:21:09;2.90;99.90
20380;DHT22;10349;48.666;8.948;2022-12-07T10:23:38;3.00;99.90
20380;DHT22;10349;48.666;8.948;2022-12-07T10:26:29;3.00;99.90
20380;DHT22;10349;48.666;8.948;2022-12-07T10:28:56;3.00;99.90
20380;DHT22;10349;48.666;8.948;2022-12-07T10:31:23;3.10;99.90
20380;DHT22;10349;48.666;8.948;2022-12-07T10:34:00;3.10;99.90
20380;DHT22;10349;48.666;8.948;2022-12-07T10:36:35;3.10;99.90
20380;DHT22;10349;48.666;8.948;2022-12-07T10:39:11;3.20;99.90
20380;DHT22;10349;48.666;8.948;2022-12-07T10:42:02;3.20;99.90
20380;DHT22;10349;48.666;8.948;2022-12-07T10:44:30;3.30;99.90
20380;DHT22;10349;48.666;8.948;2022-12-07T10:47:18;3.40;99.90
20380;DHT22;10349;48.666;8.948;2022-12-07T10:50:10;3.40;99.90
20380;DHT22;10349;48.666;8.948;2022-12-07T11:03:39;3.70;99.90
20380;DHT22;10349;48.666;8.948;2022-12-07T11:12:13;3.70;99.90
20380;DHT22;10349;48.666;8.948;2022-12-07T11:15:07;3.70;99.90
20380;DHT22;10349;48.666;8.948;2022-12-07T11:18:01;3.60;99.90
20380;DHT22;10349;48.666;8.948;2022-12-07T11:25:47;3.60;99.90
20380;DHT22;10349;48.666;8.948;2022-12-07T11:33:54;3.50;99.90
20380;DHT22;10349;48.666;8.948;2022-12-07T11:36:45;3.50;99.90
20380;DHT22;10349;48.666;8.948;2022-12-07T11:39:35;3.50;99.90
20380;DHT22;10349;48.666;8.948;2022-12-07T11:42:06;3.50;99.90
20380;DHT22;10349;48.666;8.948;2022-12-07T11:45:02;3.50;99.90
20380;DHT22;10349;48.666;8.948;2022-12-07T11:47:47;3.50;99.90
20380;DHT22;10349;48.666;8.948;2022-12-07T11:55:49;3.70;99.90
20380;DHT22;10349;48.666;8.948;2022-12-07T11:58:40;3.70;99.90
20380;DHT22;10349;48.666;8.948;2022-12-07T12:03:52;3.80;99.90
20380;DHT22;10349;48.666;8.948;2022-12-07T12:06:19;3.80;99.90
20380;DHT22;10349;48.666;8.948;2022-12-07T12:08:54;3.80;99.90
20380;DHT22;10349;48.666;8.948;2022-12-07T12:19:58;3.90;99.90
20380;DHT22;10349;48.666;8.948;2022-12-07T12:22:36;4.00;99.90
20380;DHT22;10349;48.666;8.948;2022-12-07T12:25:06;3.90;99.90
20380;DHT22;10349;48.666;8.948;2022-12-07T12:27:35;3.90;99.90
20380;DHT22;10349;48.666;8.948;2022-12-07T12:30:05;3.90;99.90
20380;DHT22;10349;48.666;8.948;2022-12-07T12:32:43;4.00;99.90
20380;DHT22;10349;48.666;8.948;2022-12-07T12:35:33;4.00;99.90
20380;DHT22;10349;48.666;8.948;2022-12-07T12:38:27;4.10;99.90
20380;DHT22;10349;48.666;8.948;2022-12-07T12:40:54;4.10;99.90
20380;DHT22;10349;48.666;8.948;2022-12-07T12:43:43;4.10;99.90
20380;DHT22;10349;48.666;8.948;2022-12-07T13:02:24;4.20;99.90
20380;DHT22;10349;48.666;8.948;2022-12-07T13:26:37;3.90;99.90
20380;DHT22;10349;48.666;8.948;2022-12-07T13:31:39;3.80;99.90
20380;DHT22;10349;48.666;8.948;2022-12-07T13:36:59;3.70;99.90
20380;DHT22;10349;48.666;8.948;2022-12-07T13:39:27;3.60;99.90
20380;DHT22;10349;48.666;8.948;2022-12-07T13:41:57;3.60;99.90
20380;DHT22;10349;48.666;8.948;2022-12-07T13:44:25;3.50;99.90
20380;DHT22;10349;48.666;8.948;2022-12-07T13:47:09;3.40;99.90
20380;DHT22;10349;48.666;8.948;2022-12-07T13:49:46;3.40;99.90
20380;DHT22;10349;48.666;8.948;2022-12-07T13:52:26;3.40;99.90
20380;DHT22;10349;48.666;8.948;2022-12-07T13:57:34;3.40;99.90
20380;DHT22;10349;48.666;8.948;2022-12-07T14:00:05;3.50;99.90
20380;DHT22;10349;48.666;8.948;2022-12-07T14:02:33;3.50;99.90
20380;DHT22;10349;48.666;8.948;2022-12-07T14:07:59;3.60;99.90
20380;DHT22;10349;48.666;8.948;2022-12-07T14:12:54;3.60;99.90
20380;DHT22;10349;48.666;8.948;2022-12-07T14:15:23;3.60;99.90
20380;DHT22;10349;48.666;8.948;2022-12-07T14:17:53;3.60;99.90
20380;DHT22;10349;48.666;8.948;2022-12-07T14:20:32;3.70;99.90
20380;DHT22;10349;48.666;8.948;2022-12-07T14:22:58;3.70;99.90
20380;DHT22;10349;48.666;8.948;2022-12-07T14:25:27;3.70;99.90
20380;DHT22;10349;48.666;8.948;2022-12-07T14:27:56;3.70;99.90
20380;DHT22;10349;48.666;8.948;2022-12-07T14:30:25;3.70;99.90
20380;DHT22;10349;48.666;8.948;2022-12-07T14:33:00;3.70;99.90
20380;DHT22;10349;48.666;8.948;2022-12-07T14:35:27;3.70;99.90
20380;DHT22;10349;48.666;8.948;2022-12-07T14:37:53;3.70;99.90
20380;DHT22;10349;48.666;8.948;2022-12-07T14:40:22;3.60;99.90
20380;DHT22;10349;48.666;8.948;2022-12-07T14:42:50;3.50;99.90
20380;DHT22;10349;48.666;8.948;2022-12-07T14:45:20;3.40;99.90
20380;DHT22;10349;48.666;8.948;2022-12-07T14:47:46;3.40;99.90
20380;DHT22;10349;48.666;8.948;2022-12-07T14:50:21;3.30;99.90
20380;DHT22;10349;48.666;8.948;2022-12-07T14:52:59;3.20;99.90
20380;DHT22;10349;48.666;8.948;2022-12-07T14:55:30;3.10;99.90
20380;DHT22;10349;48.666;8.948;2022-12-07T14:57:57;3.10;99.90
20380;DHT22;10349;48.666;8.948;2022-12-07T15:00:24;3.00;99.90
20380;DHT22;10349;48.666;8.948;2022-12-07T15:02:50;3.00;99.90
20380;DHT22;10349;48.666;8.948;2022-12-07T15:05:17;3.00;99.90
20380;DHT22;10349;48.666;8.948;2022-12-07T15:07:43;3.00;99.90
20380;DHT22;10349;48.666;8.948;2022-12-07T15:10:24;3.00;99.90
20380;DHT22;10349;48.666;8.948;2022-12-07T15:12:54;3.00;99.90
20380;DHT22;10349;48.666;8.948;2022-12-07T15:15:20;3.00;99.90
20380;DHT22;10349;48.666;8.948;2022-12-07T15:17:46;2.90;99.90
20380;DHT22;10349;48.666;8.948;2022-12-07T15:20:14;2.90;99.90
20380;DHT22;10349;48.666;8.948;2022-12-07T15:22:42;2.90;99.90
20380;DHT22;10349;48.666;8.948;2022-12-07T15:25:09;3.00;99.90
20380;DHT22;10349;48.666;8.948;2022-12-07T15:27:37;3.00;99.90
20380;DHT22;10349;48.666;8.948;2022-12-07T15:30:04;3.00;99.90
20380;DHT22;10349;48.666;8.948;2022-12-07T15:32:30;3.00;99.90
20380;DHT22;10349;48.666;8.948;2022-12-07T15:34:55;3.00;99.90
20380;DHT22;10349;48.666;8.948;2022-12-07T15:37:21;3.00;99.90
20380;DHT22;10349;48.666;8.948;2022-12-07T15:39:47;3.00;99.90
20380;DHT22;10349;48.666;8.948;2022-12-07T15:42:12;3.00;99.90
20380;DHT22;10349;48.666;8.948;2022-12-07T15:44:38;3.00;99.90
20380;DHT22;10349;48.666;8.948;2022-12-07T15:47:22;3.00;99.90
20380;DHT22;10349;48.666;8.948;2022-12-07T15:49:48;3.00;99.90
20380;DHT22;10349;48.666;8.948;2022-12-07T15:52:13;2.90;99.90
20380;DHT22;10349;48.666;8.948;2022-12-07T15:54:39;2.90;99.90
20380;DHT22;10349;48.666;8.948;2022-12-07T15:57:05;2.80;99.90
20380;DHT22;10349;48.666;8.948;2022-12-07T15:59:30;2.80;99.90
20380;DHT22;10349;48.666;8.948;2022-12-07T16:01:56;2.80;99.90
20380;DHT22;10349;48.666;8.948;2022-12-07T16:04:22;2.80;99.90
20380;DHT22;10349;48.666;8.948;2022-12-07T16:06:47;2.80;99.90
20380;DHT22;10349;48.666;8.948;2022-12-07T16:09:13;2.80;99.90
20380;DHT22;10349;48.666;8.948;2022-12-07T16:11:39;2.80;99.90
20380;DHT22;10349;48.666;8.948;2022-12-07T16:14:04;2.70;99.90
20380;DHT22;10349;48.666;8.948;2022-12-07T16:16:30;2.70;99.90
20380;DHT22;10349;48.666;8.948;2022-12-07T16:18:56;2.70;99.90
20380;DHT22;10349;48.666;8.948;2022-12-07T16:21:23;2.70;99.90
20380;DHT22;10349;48.666;8.948;2022-12-07T16:23:49;2.70;99.90
20380;DHT22;10349;48.666;8.948;2022-12-07T16:26:17;2.80;99.90
20380;DHT22;10349;48.666;8.948;2022-12-07T16:28:43;2.70;99.90
20380;DHT22;10349;48.666;8.948;2022-12-07T16:31:12;2.80;99.90
20380;DHT22;10349;48.666;8.948;2022-12-07T16:33:39;2.80;99.90
20380;DHT22;10349;48.666;8.948;2022-12-07T16:36:07;2.80;99.90
20380;DHT22;10349;48.666;8.948;2022-12-07T16:38:34;2.80;99.90
20380;DHT22;10349;48.666;8.948;2022-12-07T16:40:59;2.80;99.90
20380;DHT22;10349;48.666;8.948;2022-12-07T16:43:25;2.80;99.90
20380;DHT22;10349;48.666;8.948;2022-12-07T16:45:51;2.70;99.90
20380;DHT22;10349;48.666;8.948;2022-12-07T16:48:18;2.70;99.90
20380;DHT22;10349;48.666;8.948;2022-12-07T16:50:44;2.70;99.90
20380;DHT22;10349;48.666;8.948;2022-12-07T16:53:11;2.70;99.90
20380;DHT22;10349;48.666;8.948;2022-12-07T16:55:42;2.70;99.90
20380;DHT22;10349;48.666;8.948;2022-12-07T16:58:08;2.60;99.90
20380;DHT22;10349;48.666;8.948;2022-12-07T17:00:34;2.60;99.90
20380;DHT22;10349;48.666;8.948;2022-12-07T17:03:01;2.60;99.90
20380;DHT22;10349;48.666;8.948;2022-12-07T17:05:27;2.60;99.90
20380;DHT22;10349;48.666;8.948;2022-12-07T17:07:55;2.70;99.90
20380;DHT22;10349;48.666;8.948;2022-12-07T17:10:21;2.60;99.90
20380;DHT22;10349;48.666;8.948;2022-12-07T17:12:47;2.60;99.90
20380;DHT22;10349;48.666;8.948;2022-12-07T17:15:13;2.60;99.90
20380;DHT22;10349;48.666;8.948;2022-12-07T17:17:42;2.60;99.90
20380;DHT22;10349;48.666;8.948;2022-12-07T17:20:08;2.60;99.90
20380;DHT22;10349;48.666;8.948;2022-12-07T17:22:34;2.60;99.90
20380;DHT22;10349;48.666;8.948;2022-12-07T17:25:00;2.60;99.90
20380;DHT22;10349;48.666;8.948;2022-12-07T17:27:26;2.60;99.90
20380;DHT22;10349;48.666;8.948;2022-12-07T17:29:51;2.50;99.90
20380;DHT22;10349;48.666;8.948;2022-12-07T17:32:17;2.40;99.90
20380;DHT22;10349;48.666;8.948;2022-12-07T17:34:42;2.40;99.90
20380;DHT22;10349;48.666;8.948;2022-12-07T17:37:08;2.30;99.90
20380;DHT22;10349;48.666;8.948;2022-12-07T17:39:34;2.30;99.90
20380;DHT22;10349;48.666;8.948;2022-12-07T17:41:59;2.20;99.90
20380;DHT22;10349;48.666;8.948;2022-12-07T17:44:43;2.20;99.90
20380;DHT22;10349;48.666;8.948;2022-12-07T17:47:09;2.20;99.90
20380;DHT22;10349;48.666;8.948;2022-12-07T17:49:35;2.20;99.90
20380;DHT22;10349;48.666;8.948;2022-12-07T17:52:01;2.20;99.90
20380;DHT22;10349;48.666;8.948;2022-12-07T17:54:45;2.20;99.90
20380;DHT22;10349;48.666;8.948;2022-12-07T17:57:11;2.10;99.90
20380;DHT22;10349;48.666;8.948;2022-12-07T17:59:36;2.10;99.90
20380;DHT22;10349;48.666;8.948;2022-12-07T18:02:02;2.10;99.90
20380;DHT22;10349;48.666;8.948;2022-12-07T18:04:28;2.00;99.90